createdAt,value
2022-11-13T00:01:24.045Z,8.93
2022-11-13T00:03:52.420Z,8.96
2022-11-13T00:06:20.855Z,8.95
2022-11-13T00:08:55.072Z,8.97
2022-11-13T00:11:23.324Z,8.98
2022-11-13T00:13:51.696Z,8.98
2022-11-13T00:16:21.944Z,8.99
2022-11-13T00:18:50.305Z,9.00
2022-11-13T00:21:23.485Z,9.01
2022-11-13T00:23:52.085Z,9.02
2022-11-13T00:26:27.448Z,9.03
2022-11-13T00:28:59.953Z,9.02
2022-11-13T00:31:29.685Z,9.02
2022-11-13T00:34:19.446Z,9.04
2022-11-13T00:36:48.195Z,9.05
2022-11-13T00:39:16.503Z,9.08
2022-11-13T00:41:44.849Z,9.10
2022-11-13T00:44:13.257Z,9.12
2022-11-13T00:46:41.706Z,9.13
2022-11-13T00:49:10.036Z,9.14
2022-11-13T00:51:38.516Z,9.16
2022-11-13T00:54:06.864Z,9.18
2022-11-13T00:56:35.220Z,9.18
2022-11-13T00:59:03.598Z,9.18
2022-11-13T01:01:32.069Z,9.19
2022-11-13T01:04:00.381Z,9.19
2022-11-13T01:06:29.061Z,9.18
2022-11-13T01:09:02.349Z,9.18
2022-11-13T01:11:31.164Z,9.18
2022-11-13T01:13:59.504Z,9.16
2022-11-13T01:16:28.576Z,9.16
2022-11-13T01:18:56.985Z,9.16
2022-11-13T01:21:27.961Z,9.17
2022-11-13T01:23:56.784Z,9.17
2022-11-13T01:26:30.747Z,9.17
2022-11-13T01:29:00.413Z,9.16
2022-11-13T01:31:30.881Z,9.16
2022-11-13T01:33:59.606Z,9.18
2022-11-13T01:36:29.676Z,9.19
2022-11-13T01:38:58.150Z,9.22
2022-11-13T01:41:32.995Z,9.22
2022-11-13T01:44:02.001Z,9.21
2022-11-13T01:46:38.843Z,9.20
2022-11-13T01:49:27.264Z,9.20
2022-11-13T01:52:10.533Z,9.19
2022-11-13T01:54:53.853Z,9.19
2022-11-13T01:57:22.917Z,9.17
2022-11-13T01:59:58.495Z,9.17
2022-11-13T02:02:26.930Z,9.14
2022-11-13T02:04:55.305Z,9.09
2022-11-13T02:07:24.444Z,9.06
2022-11-13T02:09:58.119Z,9.05
2022-11-13T02:12:35.658Z,9.05
2022-11-13T02:15:07.365Z,9.06
2022-11-13T02:17:50.236Z,9.06
2022-11-13T02:21:05.975Z,9.07
2022-11-13T02:23:44.902Z,9.08
2022-11-13T02:26:13.493Z,9.09
2022-11-13T02:28:41.833Z,9.09
2022-11-13T02:31:13.686Z,9.07
2022-11-13T02:33:42.155Z,9.07
2022-11-13T02:36:12.216Z,9.07
2022-11-13T02:38:42.097Z,9.08
2022-11-13T02:41:10.485Z,9.08
2022-11-13T02:43:38.852Z,9.08
2022-11-13T02:46:07.180Z,9.08
2022-11-13T02:48:35.506Z,9.08
2022-11-13T02:51:04.435Z,9.05
2022-11-13T02:53:33.029Z,9.05
2022-11-13T02:56:01.404Z,9.05
2022-11-13T02:58:30.300Z,9.06
2022-11-13T03:01:03.548Z,9.06
2022-11-13T03:03:56.460Z,9.08
2022-11-13T03:06:20.198Z,9.08
2022-11-13T03:08:48.526Z,9.09
2022-11-13T03:11:16.777Z,9.09
2022-11-13T03:13:45.122Z,9.10
2022-11-13T03:16:16.593Z,9.10
2022-11-13T03:18:44.885Z,9.12
2022-11-13T03:21:16.026Z,9.12
2022-11-13T03:23:47.455Z,9.12
2022-11-13T03:26:17.557Z,9.12
2022-11-13T03:28:46.289Z,9.10
2022-11-13T03:31:14.722Z,9.10
2022-11-13T03:33:43.427Z,9.10
2022-11-13T03:36:11.784Z,9.11
2022-11-13T03:38:40.317Z,9.11
2022-11-13T03:41:08.634Z,9.11
2022-11-13T03:43:36.969Z,9.12
2022-11-13T03:46:05.545Z,9.11
2022-11-13T03:48:34.157Z,9.09
2022-11-13T03:51:03.089Z,9.08
2022-11-13T03:53:31.423Z,9.07
2022-11-13T03:56:00.166Z,9.06
2022-11-13T03:58:28.715Z,9.03
2022-11-13T04:00:57.370Z,9.01
2022-11-13T04:03:25.811Z,9.00
2022-11-13T04:05:54.111Z,8.98
2022-11-13T04:08:22.408Z,8.95
2022-11-13T04:10:50.713Z,8.92
2022-11-13T04:13:19.112Z,8.92
2022-11-13T04:15:47.904Z,8.92
2022-11-13T04:18:16.148Z,8.89
2022-11-13T04:20:44.475Z,8.87
2022-11-13T04:23:14.349Z,8.86
2022-11-13T04:25:42.630Z,8.84
2022-11-13T04:28:11.297Z,8.83
2022-11-13T04:30:39.589Z,8.82
2022-11-13T04:33:07.925Z,8.83
2022-11-13T04:35:36.370Z,8.83
2022-11-13T04:38:05.052Z,8.82
2022-11-13T04:40:33.683Z,8.82
2022-11-13T04:43:02.264Z,8.81
2022-11-13T04:45:30.811Z,8.79
2022-11-13T04:47:59.120Z,8.80
2022-11-13T04:50:27.571Z,8.80
2022-11-13T04:52:55.966Z,8.80
2022-11-13T04:55:24.359Z,8.80
2022-11-13T04:57:56.395Z,8.81
2022-11-13T05:00:24.778Z,8.80
2022-11-13T05:02:53.312Z,8.79
2022-11-13T05:05:21.701Z,8.78
2022-11-13T05:07:49.988Z,8.77
2022-11-13T05:10:18.374Z,8.77
2022-11-13T05:12:46.699Z,8.76
2022-11-13T05:15:15.029Z,8.74
2022-11-13T05:17:43.429Z,8.72
2022-11-13T05:20:12.122Z,8.70
2022-11-13T05:22:40.390Z,8.68
2022-11-13T05:25:09.009Z,8.68
2022-11-13T05:27:37.388Z,8.66
2022-11-13T05:30:06.687Z,8.65
2022-11-13T05:32:35.007Z,8.64
2022-11-13T05:35:03.796Z,8.63
2022-11-13T05:37:32.184Z,8.62
2022-11-13T05:40:00.478Z,8.62
2022-11-13T05:42:28.798Z,8.59
2022-11-13T05:44:57.231Z,8.57
2022-11-13T05:47:25.671Z,8.54
2022-11-13T05:49:54.118Z,8.52
2022-11-13T05:52:22.421Z,8.50
2022-11-13T05:54:50.739Z,8.47
2022-11-13T05:57:19.034Z,8.44
2022-11-13T05:59:47.309Z,8.42
2022-11-13T06:02:15.671Z,8.41
2022-11-13T06:04:43.990Z,8.39
2022-11-13T06:07:13.683Z,8.37
2022-11-13T06:09:42.034Z,8.34
2022-11-13T06:12:10.415Z,8.33
2022-11-13T06:14:38.721Z,8.32
2022-11-13T06:17:07.031Z,8.31
2022-11-13T06:19:35.386Z,8.30
2022-11-13T06:22:03.727Z,8.29
2022-11-13T06:24:32.039Z,8.30
2022-11-13T06:27:00.378Z,8.29
2022-11-13T06:29:28.734Z,8.29
2022-11-13T06:31:57.213Z,8.30
2022-11-13T06:34:25.509Z,8.30
2022-11-13T06:36:53.792Z,8.29
2022-11-13T06:39:22.130Z,8.29
2022-11-13T06:41:50.565Z,8.30
2022-11-13T06:44:18.896Z,8.30
2022-11-13T06:46:47.189Z,8.30
2022-11-13T06:49:15.490Z,8.32
2022-11-13T06:51:43.768Z,8.32
2022-11-13T06:54:12.025Z,8.34
2022-11-13T06:56:45.412Z,8.35
2022-11-13T06:59:13.669Z,8.35
2022-11-13T07:01:41.944Z,8.36
2022-11-13T07:04:13.581Z,8.38
2022-11-13T07:06:42.032Z,8.39
2022-11-13T07:09:10.413Z,8.42
2022-11-13T07:11:38.782Z,8.46
2022-11-13T07:14:11.204Z,8.49
2022-11-13T07:17:07.413Z,8.52
2022-11-13T07:19:27.999Z,8.56
2022-11-13T07:21:56.330Z,8.58
2022-11-13T07:24:24.993Z,8.61
2022-11-13T07:26:53.301Z,8.63
2022-11-13T07:29:21.582Z,8.64
2022-11-13T07:31:50.015Z,8.68
2022-11-13T07:34:18.267Z,8.72
2022-11-13T07:36:46.708Z,8.75
2022-11-13T07:39:15.024Z,8.79
2022-11-13T07:41:43.347Z,8.82
2022-11-13T07:44:21.895Z,8.85
2022-11-13T07:47:00.615Z,8.90
2022-11-13T07:49:28.901Z,8.98
2022-11-13T07:51:57.261Z,9.06
2022-11-13T07:54:25.544Z,9.12
2022-11-13T07:56:53.865Z,9.18
2022-11-13T07:59:22.200Z,9.23
2022-11-13T08:01:50.616Z,9.30
2022-11-13T08:04:19.173Z,9.37
2022-11-13T08:06:47.711Z,9.44
2022-11-13T08:09:16.017Z,9.51
2022-11-13T08:11:44.365Z,9.59
2022-11-13T08:14:12.826Z,9.66
2022-11-13T08:16:41.148Z,9.72
2022-11-13T08:19:09.915Z,9.80
2022-11-13T08:21:38.257Z,9.90
2022-11-13T08:24:06.925Z,9.99
2022-11-13T08:26:38.848Z,10.16
2022-11-13T08:29:07.231Z,10.32
2022-11-13T08:31:36.792Z,10.39
2022-11-13T08:34:05.215Z,10.44
2022-11-13T08:36:33.981Z,10.46
2022-11-13T08:39:02.412Z,10.48
2022-11-13T08:41:30.791Z,10.51
2022-11-13T08:43:59.147Z,10.55
2022-11-13T08:46:27.632Z,10.57
2022-11-13T08:48:56.158Z,10.57
2022-11-13T08:51:24.495Z,10.56
2022-11-13T08:53:52.855Z,10.52
2022-11-13T08:56:21.280Z,10.48
2022-11-13T08:58:49.645Z,10.44
2022-11-13T09:01:18.011Z,10.42
2022-11-13T09:03:51.395Z,10.41
2022-11-13T09:06:19.710Z,10.41
2022-11-13T09:08:48.026Z,10.38
2022-11-13T09:11:16.803Z,10.32
2022-11-13T09:13:50.667Z,10.29
2022-11-13T09:16:21.808Z,10.23
2022-11-13T09:18:51.926Z,10.20
2022-11-13T09:21:20.266Z,10.18
2022-11-13T09:23:48.632Z,10.15
2022-11-13T09:26:17.901Z,10.09
2022-11-13T09:28:46.298Z,10.00
2022-11-13T09:31:14.768Z,9.87
2022-11-13T09:33:43.042Z,9.80
2022-11-13T09:36:14.957Z,9.77
2022-11-13T09:38:43.367Z,9.71
2022-11-13T09:41:20.722Z,9.62
2022-11-13T09:43:59.849Z,9.58
2022-11-13T09:46:45.989Z,9.54
2022-11-13T09:49:28.798Z,9.46
2022-11-13T09:52:06.532Z,9.37
2022-11-13T09:54:35.060Z,9.33
2022-11-13T09:57:20.457Z,9.29
2022-11-13T10:00:02.173Z,9.24
2022-11-13T10:03:10.781Z,9.20
2022-11-13T10:06:00.434Z,9.18
2022-11-13T10:09:00.448Z,9.18
2022-11-13T10:11:44.712Z,9.21
2022-11-13T10:14:25.217Z,9.22
2022-11-13T10:17:06.977Z,9.21
2022-11-13T10:19:59.324Z,9.19
2022-11-13T10:23:15.600Z,9.17
2022-11-13T10:25:45.159Z,9.14
2022-11-13T10:28:48.719Z,9.10
2022-11-13T10:31:12.674Z,9.05
2022-11-13T10:33:40.959Z,9.04
2022-11-13T10:36:39.945Z,9.03
2022-11-13T10:39:09.776Z,9.04
2022-11-13T10:41:53.304Z,9.08
2022-11-13T10:44:29.607Z,9.09
2022-11-13T10:48:02.107Z,9.09
2022-11-13T10:50:36.279Z,9.08
2022-11-13T10:53:17.383Z,9.12
2022-11-13T10:55:50.676Z,9.15
2022-11-13T10:58:20.270Z,9.17
2022-11-13T11:00:49.977Z,9.20
2022-11-13T11:03:22.534Z,9.22
2022-11-13T11:06:00.803Z,9.25
2022-11-13T11:08:33.890Z,9.28
2022-11-13T11:11:36.902Z,9.27
2022-11-13T11:14:38.567Z,9.25
2022-11-13T11:17:09.301Z,9.24
2022-11-13T11:19:39.019Z,9.25
2022-11-13T11:22:21.650Z,9.23
2022-11-13T11:25:20.743Z,9.17
2022-11-13T11:28:03.885Z,9.14
2022-11-13T11:30:44.190Z,9.13
2022-11-13T11:34:01.981Z,9.14
2022-11-13T11:36:40.651Z,9.14
2022-11-13T11:39:54.442Z,9.12
2022-11-13T11:42:37.922Z,9.12
2022-11-13T11:45:40.211Z,9.14
2022-11-13T11:48:16.591Z,9.18
2022-11-13T11:51:22.479Z,9.20
2022-11-13T11:54:24.937Z,9.20
2022-11-13T11:57:00.051Z,9.18
2022-11-13T11:59:58.727Z,9.17
2022-11-13T12:02:46.393Z,9.18
2022-11-13T12:05:56.281Z,9.18
2022-11-13T12:08:50.868Z,9.16
2022-11-13T12:12:07.204Z,9.19
2022-11-13T12:15:39.303Z,9.22
2022-11-13T12:18:46.651Z,9.25
2022-11-13T12:21:23.775Z,9.32
2022-11-13T12:24:45.856Z,9.34
2022-11-13T12:27:22.102Z,9.34
2022-11-13T12:30:19.709Z,9.35
2022-11-13T12:32:55.177Z,9.36
2022-11-13T12:35:26.047Z,9.40
2022-11-13T12:38:06.415Z,9.42
2022-11-13T12:40:59.916Z,9.44
2022-11-13T12:43:43.786Z,9.49
2022-11-13T12:46:13.233Z,9.53
2022-11-13T12:48:47.751Z,9.54
2022-11-13T12:51:18.506Z,9.57
2022-11-13T12:53:54.208Z,9.56
2022-11-13T12:56:26.439Z,9.58
2022-11-13T12:59:32.482Z,9.62
2022-11-13T13:02:06.889Z,9.64
2022-11-13T13:04:47.497Z,9.62
2022-11-13T13:07:51.279Z,9.65
2022-11-13T13:10:23.387Z,9.68
2022-11-13T13:13:00.569Z,9.73
2022-11-13T13:15:53.834Z,9.81
2022-11-13T13:18:34.561Z,9.90
2022-11-13T13:21:06.589Z,9.90
2022-11-13T13:23:41.805Z,9.89
2022-11-13T13:26:13.327Z,9.89
2022-11-13T13:28:48.064Z,9.90
2022-11-13T13:31:54.664Z,9.91
2022-11-13T13:35:04.598Z,9.91
2022-11-13T13:37:54.452Z,9.93
2022-11-13T13:40:34.824Z,9.96
2022-11-13T13:43:47.435Z,10.02
2022-11-13T13:46:22.552Z,10.10
2022-11-13T13:48:57.115Z,10.13
2022-11-13T13:51:31.661Z,10.17
2022-11-13T13:54:05.270Z,10.22
2022-11-13T13:56:40.334Z,10.23
2022-11-13T13:59:37.118Z,10.28
2022-11-13T14:02:23.343Z,10.32
2022-11-13T14:04:54.874Z,10.31
2022-11-13T14:07:30.378Z,10.27
2022-11-13T14:10:20.753Z,10.24
2022-11-13T14:12:49.577Z,10.20
2022-11-13T14:15:29.803Z,10.18
2022-11-13T14:18:18.244Z,10.16
2022-11-13T14:20:56.689Z,10.14
2022-11-13T14:23:40.334Z,10.08
2022-11-13T14:26:13.219Z,10.02
2022-11-13T14:29:01.095Z,9.95
2022-11-13T14:31:34.053Z,9.89
2022-11-13T14:34:11.546Z,9.84
2022-11-13T14:36:41.027Z,9.78
2022-11-13T14:39:30.409Z,9.72
2022-11-13T14:42:01.292Z,9.64
2022-11-13T14:44:34.750Z,9.58
2022-11-13T14:47:21.734Z,9.50
2022-11-13T14:49:50.186Z,9.41
2022-11-13T14:52:25.576Z,9.34
2022-11-13T14:55:20.827Z,9.26
2022-11-13T14:57:50.371Z,9.13
2022-11-13T15:00:27.832Z,9.04
2022-11-13T15:02:56.482Z,8.95
2022-11-13T15:05:25.507Z,8.83
2022-11-13T15:07:56.553Z,8.75
2022-11-13T15:10:28.257Z,8.67
2022-11-13T15:12:56.696Z,8.58
2022-11-13T15:15:30.420Z,8.49
2022-11-13T15:17:58.926Z,8.40
2022-11-13T15:20:29.227Z,8.32
2022-11-13T15:22:59.615Z,8.22
2022-11-13T15:25:27.994Z,8.12
2022-11-13T15:27:56.373Z,8.04
2022-11-13T15:30:24.681Z,7.95
2022-11-13T15:32:54.203Z,7.86
2022-11-13T15:35:22.762Z,7.78
2022-11-13T15:37:51.696Z,7.71
2022-11-13T15:40:20.247Z,7.62
2022-11-13T15:42:48.747Z,7.54
2022-11-13T15:45:17.422Z,7.46
2022-11-13T15:47:45.882Z,7.38
2022-11-13T15:50:15.919Z,7.30
2022-11-13T15:52:52.134Z,7.23
2022-11-13T15:55:29.591Z,7.17
2022-11-13T15:57:58.671Z,7.12
2022-11-13T16:00:29.000Z,7.08
2022-11-13T16:02:57.744Z,7.04
2022-11-13T16:05:29.266Z,6.99
2022-11-13T16:07:57.998Z,6.94
2022-11-13T16:10:26.391Z,6.86
2022-11-13T16:12:55.491Z,6.81
2022-11-13T16:15:24.160Z,6.76
2022-11-13T16:17:57.669Z,6.70
2022-11-13T16:20:26.075Z,6.64
2022-11-13T16:22:55.079Z,6.58
2022-11-13T16:25:23.567Z,6.52
2022-11-13T16:27:52.270Z,6.47
2022-11-13T16:30:23.390Z,6.42
2022-11-13T16:32:52.133Z,6.38
2022-11-13T16:35:21.169Z,6.35
2022-11-13T16:37:49.646Z,6.31
2022-11-13T16:40:25.961Z,6.26
2022-11-13T16:42:54.360Z,6.18
2022-11-13T16:45:23.267Z,6.11
2022-11-13T16:47:51.738Z,6.03
2022-11-13T16:50:28.031Z,5.97
2022-11-13T16:52:56.804Z,5.94
2022-11-13T16:55:25.386Z,5.91
2022-11-13T16:57:53.825Z,5.88
2022-11-13T17:00:22.443Z,5.85
2022-11-13T17:02:55.184Z,5.85
2022-11-13T17:05:24.187Z,5.83
2022-11-13T17:07:59.411Z,5.80
2022-11-13T17:10:32.606Z,5.78
2022-11-13T17:13:01.737Z,5.75
2022-11-13T17:15:31.321Z,5.73
2022-11-13T17:17:59.831Z,5.70
2022-11-13T17:20:28.219Z,5.69
2022-11-13T17:22:57.168Z,5.66
2022-11-13T17:25:27.983Z,5.63
2022-11-13T17:27:56.523Z,5.59
2022-11-13T17:30:24.905Z,5.54
2022-11-13T17:32:53.230Z,5.47
2022-11-13T17:35:21.624Z,5.39
2022-11-13T17:37:50.086Z,5.30
2022-11-13T17:40:19.471Z,5.22
2022-11-13T17:42:49.465Z,5.15
2022-11-13T17:45:17.876Z,5.07
2022-11-13T17:47:46.366Z,4.99
2022-11-13T17:50:15.460Z,4.91
2022-11-13T17:52:43.894Z,4.84
2022-11-13T17:55:13.991Z,4.78
2022-11-13T17:57:42.473Z,4.72
2022-11-13T18:00:11.620Z,4.68
2022-11-13T18:02:40.019Z,4.66
2022-11-13T18:05:10.067Z,4.64
2022-11-13T18:07:40.106Z,4.60
2022-11-13T18:10:10.987Z,4.57
2022-11-13T18:12:39.538Z,4.56
2022-11-13T18:15:08.218Z,4.54
2022-11-13T18:17:36.658Z,4.52
2022-11-13T18:20:05.677Z,4.51
2022-11-13T18:22:34.073Z,4.49
2022-11-13T18:25:03.333Z,4.48
2022-11-13T18:27:31.972Z,4.47
2022-11-13T18:30:00.420Z,4.48
2022-11-13T18:32:28.846Z,4.48
2022-11-13T18:34:57.194Z,4.48
2022-11-13T18:37:25.660Z,4.46
2022-11-13T18:39:54.112Z,4.46
2022-11-13T18:42:22.521Z,4.44
2022-11-13T18:44:51.129Z,4.44
2022-11-13T18:47:19.629Z,4.43
2022-11-13T18:49:48.553Z,4.42
2022-11-13T18:52:16.922Z,4.39
2022-11-13T18:54:45.282Z,4.36
2022-11-13T18:57:13.645Z,4.33
2022-11-13T18:59:41.972Z,4.27
2022-11-13T19:02:12.956Z,4.22
2022-11-13T19:04:41.444Z,4.17
2022-11-13T19:07:12.247Z,4.12
2022-11-13T19:09:45.059Z,4.05
2022-11-13T19:12:13.472Z,4.01
2022-11-13T19:14:41.823Z,3.95
2022-11-13T19:17:10.863Z,3.89
2022-11-13T19:19:41.775Z,3.83
2022-11-13T19:22:10.229Z,3.79
2022-11-13T19:24:38.656Z,3.76
2022-11-13T19:27:07.011Z,3.74
2022-11-13T19:29:35.342Z,3.72
2022-11-13T19:32:03.945Z,3.66
2022-11-13T19:34:32.364Z,3.62
2022-11-13T19:37:00.781Z,3.58
2022-11-13T19:39:29.145Z,3.57
2022-11-13T19:41:57.567Z,3.56
2022-11-13T19:44:26.083Z,3.54
2022-11-13T19:46:54.456Z,3.53
2022-11-13T19:49:22.896Z,3.50
2022-11-13T19:51:51.254Z,3.49
2022-11-13T19:54:19.665Z,3.48
2022-11-13T19:56:48.184Z,3.46
2022-11-13T19:59:16.652Z,3.46
2022-11-13T20:01:45.076Z,3.46
2022-11-13T20:04:13.818Z,3.44
2022-11-13T20:06:42.442Z,3.43
2022-11-13T20:09:11.025Z,3.43
2022-11-13T20:11:39.556Z,3.44
2022-11-13T20:14:12.137Z,3.46
2022-11-13T20:16:40.503Z,3.49
2022-11-13T20:19:08.919Z,3.51
2022-11-13T20:21:37.315Z,3.55
2022-11-13T20:24:06.014Z,3.58
2022-11-13T20:26:34.367Z,3.60
2022-11-13T20:29:02.889Z,3.64
2022-11-13T20:31:31.363Z,3.66
2022-11-13T20:33:59.819Z,3.69
2022-11-13T20:36:28.202Z,3.73
2022-11-13T20:38:57.830Z,3.78
2022-11-13T20:41:26.280Z,3.82
2022-11-13T20:44:01.843Z,3.87
2022-11-13T20:46:30.898Z,3.91
2022-11-13T20:48:59.627Z,3.94
2022-11-13T20:51:29.046Z,3.98
2022-11-13T20:53:57.667Z,4.02
2022-11-13T20:56:26.979Z,4.05
2022-11-13T20:58:55.695Z,4.08
2022-11-13T21:01:26.175Z,4.12
2022-11-13T21:03:56.063Z,4.16
2022-11-13T21:06:27.295Z,4.20
2022-11-13T21:08:56.524Z,4.23
2022-11-13T21:11:25.671Z,4.26
2022-11-13T21:13:55.503Z,4.29
2022-11-13T21:16:24.990Z,4.33
2022-11-13T21:18:59.014Z,4.36
2022-11-13T21:21:28.948Z,4.39
2022-11-13T21:23:59.211Z,4.44
2022-11-13T21:26:28.947Z,4.48
2022-11-13T21:28:57.858Z,4.50
2022-11-13T21:31:27.342Z,4.52
2022-11-13T21:33:57.618Z,4.55
2022-11-13T21:36:28.912Z,4.58
2022-11-13T21:38:57.412Z,4.60
2022-11-13T21:41:26.072Z,4.62
2022-11-13T21:44:00.455Z,4.64
2022-11-13T21:46:38.256Z,4.66
2022-11-13T21:49:10.153Z,4.66
2022-11-13T21:51:41.219Z,4.66
2022-11-13T21:54:10.044Z,4.68
2022-11-13T21:56:38.940Z,4.69
2022-11-13T21:59:07.581Z,4.70
2022-11-13T22:01:38.486Z,4.69
2022-11-13T22:04:07.365Z,4.66
2022-11-13T22:06:41.859Z,4.65
2022-11-13T22:09:19.790Z,4.64
2022-11-13T22:11:48.847Z,4.65
2022-11-13T22:14:17.362Z,4.63
2022-11-13T22:16:47.632Z,4.63
2022-11-13T22:19:23.822Z,4.62
2022-11-13T22:21:55.161Z,4.61
2022-11-13T22:24:23.556Z,4.60
2022-11-13T22:26:51.949Z,4.58
2022-11-13T22:29:20.299Z,4.55
2022-11-13T22:31:48.704Z,4.51
2022-11-13T22:34:18.298Z,4.49
2022-11-13T22:36:46.706Z,4.47
2022-11-13T22:39:15.152Z,4.45
2022-11-13T22:41:43.566Z,4.45
2022-11-13T22:44:13.907Z,4.45
2022-11-13T22:46:42.230Z,4.45
2022-11-13T22:49:11.885Z,4.47
2022-11-13T22:51:41.650Z,4.48
2022-11-13T22:54:12.512Z,4.48
2022-11-13T22:56:42.049Z,4.48
2022-11-13T22:59:12.277Z,4.47
2022-11-13T23:01:43.052Z,4.46
2022-11-13T23:04:13.759Z,4.44
2022-11-13T23:06:43.263Z,4.43
2022-11-13T23:09:11.587Z,4.44
2022-11-13T23:11:41.369Z,4.42
2022-11-13T23:14:15.864Z,4.40
2022-11-13T23:16:44.271Z,4.38
2022-11-13T23:19:13.034Z,4.37
2022-11-13T23:21:41.599Z,4.37
2022-11-13T23:24:10.507Z,4.36
2022-11-13T23:26:39.363Z,4.37
2022-11-13T23:29:07.731Z,4.38
2022-11-13T23:31:36.091Z,4.40
2022-11-13T23:34:04.452Z,4.40
2022-11-13T23:36:32.738Z,4.42
2022-11-13T23:39:01.194Z,4.43
2022-11-13T23:41:29.521Z,4.43
2022-11-13T23:44:13.064Z,4.43
2022-11-13T23:46:41.398Z,4.43
2022-11-13T23:49:09.669Z,4.45
2022-11-13T23:51:37.976Z,4.48
2022-11-13T23:54:06.334Z,4.49
2022-11-13T23:56:34.719Z,4.51
2022-11-13T23:59:03.071Z,4.52
